Nashville, Tennessee
Traffic Map
Current Weather Conditions
Nashville, Tennessee
Scattered Clouds
Scattered Clouds
13°
Feels Like: 13°
Wind Chill: 13° Ceiling: Unl
Heat Index: 13° Visibility: 10mi
Dew Point: 11° Wind: 0mph
Humidity: 87% Direction: ° ()
Pressure: 30.08in Gusts: 0mph
Raw Report DataKBNA 241053Z 00000KT 10SM SCT250 13/11 A3008 RMK AO2 SLP180 T01330111
Traffic Incident Summary
Active as of:
Severity:
Category:
InformationThere was an issue retrieving the traffic information for this location. Please try a different location or try again shortly.
Advertisements
Track Severe Weather on mobile